Time,TemperatureF,DewpointF,PressureIn,WindDirection,WindDirectionDegrees,WindSpeedMPH,WindSpeedGustMPH,Humidity,HourlyPrecipIn,Conditions,Clouds,dailyrainin,SolarRadiationWatts/m^2,SoftwareType,DateUTC
2013-01-17 00:42:00,11.0,8.0,-100.00,NNE,23,2.0,5.0,89,-99.99,,,0.24,0.000000,,2013-01-17 07:42:00,
2013-01-17 00:52:00,11.0,8.0,-100.00,NNE,23,2.0,5.0,89,-99.99,,,0.24,0.000000,,2013-01-17 07:52:00,
2013-01-17 01:43:00,8.0,5.0,-100.00,North,10,2.0,3.0,86,-99.99,,,0.24,0.000000,,2013-01-17 08:43:00,
2013-01-17 01:53:00,8.0,5.0,-100.00,North,10,2.0,3.0,86,-99.99,,,0.24,0.000000,,2013-01-17 08:53:00,
2013-01-17 02:33:00,8.0,4.0,-100.00,ENE,75,1.0,4.0,85,-99.99,,,0.24,0.000000,,2013-01-17 09:33:00,
2013-01-17 03:33:00,6.0,2.0,-100.00,North,9,2.0,3.0,85,-99.99,,,0.24,0.000000,,2013-01-17 10:33:00,
2013-01-17 04:33:00,4.0,0.0,-100.00,East,90,1.0,2.0,83,-99.99,,,0.24,0.000000,,2013-01-17 11:33:00,
2013-01-17 05:33:00,4.0,0.0,-100.00,NE,45,1.0,3.0,82,-99.99,,,0.24,0.000000,,2013-01-17 12:33:00,
2013-01-17 06:33:00,1.0,-4.0,-100.00,North,351,2.0,3.0,80,-99.99,,,0.24,0.000000,,2013-01-17 13:33:00,
2013-01-17 07:33:00,2.0,-2.0,-100.00,ENE,77,1.0,4.0,84,-99.99,,,0.24,0.000000,,2013-01-17 14:33:00,
2013-01-17 08:33:00,1.0,-3.0,-100.00,SSE,152,1.0,2.0,83,-99.99,,,0.24,0.000000,,2013-01-17 15:33:00,
2013-01-17 09:44:00,3.0,-1.0,-100.00,ENE,60,1.0,3.0,82,-99.99,,,0.24,20.000000,,2013-01-17 16:44:00,
2013-01-17 09:53:00,3.0,-1.0,-100.00,ENE,60,1.0,3.0,82,-99.99,,,0.24,20.000000,,2013-01-17 16:53:00,
2013-01-17 10:33:00,16.0,12.0,-100.00,SE,128,1.0,2.0,84,-99.99,,,0.24,119.000000,,2013-01-17 17:33:00,
2013-01-17 10:43:00,16.0,12.0,-100.00,SE,128,1.0,2.0,84,-99.99,,,0.24,119.000000,,2013-01-17 17:43:00,
2013-01-17 10:53:00,16.0,12.0,-100.00,SE,128,1.0,2.0,84,-99.99,,,0.24,119.000000,,2013-01-17 17:53:00,
2013-01-17 11:03:00,16.0,12.0,-100.00,SE,128,1.0,2.0,84,-99.99,,,0.24,119.000000,,2013-01-17 18:03:00,
2013-01-17 11:12:00,16.0,12.0,-100.00,SE,128,1.0,2.0,84,-99.99,,,0.24,119.000000,,2013-01-17 18:12:00,
2013-01-17 11:34:00,26.0,22.0,-100.00,SSE,157,2.0,3.0,85,0.00,,,0.24,252.000000,,2013-01-17 18:34:00,
2013-01-17 11:44:00,26.0,22.0,-100.00,SSE,157,2.0,3.0,85,0.00,,,0.24,252.000000,,2013-01-17 18:44:00,
2013-01-17 11:53:00,26.0,22.0,-100.00,SSE,157,2.0,3.0,85,0.00,,,0.24,252.000000,,2013-01-17 18:53:00,
2013-01-17 12:03:00,26.0,22.0,-100.00,SSE,157,2.0,3.0,85,0.00,,,0.24,252.000000,,2013-01-17 19:03:00,
2013-01-17 12:12:00,26.0,22.0,-100.00,SSE,157,2.0,3.0,85,0.00,,,0.24,252.000000,,2013-01-17 19:12:00,
2013-01-17 12:43:00,34.0,24.0,-100.00,South,188,2.0,4.0,66,0.00,,,0.20,353.000000,,2013-01-17 19:43:00,
2013-01-17 12:53:00,34.0,24.0,-100.00,South,188,2.0,4.0,66,0.00,,,0.20,353.000000,,2013-01-17 19:53:00,
2013-01-17 13:43:00,39.0,22.0,-100.00,SE,145,3.0,5.0,50,-99.99,,,0.00,415.000000,,2013-01-17 20:43:00,
2013-01-17 13:53:00,39.0,22.0,-100.00,SE,145,3.0,5.0,50,-99.99,,,0.00,415.000000,,2013-01-17 20:53:00,
2013-01-17 14:34:00,41.0,22.0,-100.00,South,186,3.0,5.0,46,-99.99,,,0.01,393.000000,,2013-01-17 21:34:00,
2013-01-17 15:33:00,38.0,22.0,-100.00,South,171,4.0,5.0,51,-99.99,,,0.01,249.000000,,2013-01-17 22:33:00,
2013-01-17 16:43:00,36.0,21.0,-100.00,SSW,195,3.0,6.0,55,-99.99,,,0.01,199.000000,,2013-01-17 23:43:00,
2013-01-17 16:53:00,36.0,21.0,-100.00,SSW,195,3.0,6.0,55,-99.99,,,0.01,199.000000,,2013-01-17 23:53:00,
2013-01-17 17:02:00,36.0,21.0,-100.00,SSW,195,3.0,6.0,55,-99.99,,,0.01,199.000000,,2013-01-18 00:02:00,
2013-01-17 17:12:00,36.0,21.0,-100.00,SSW,195,3.0,6.0,55,-99.99,,,0.01,199.000000,,2013-01-18 00:12:00,
2013-01-17 17:43:00,28.0,21.0,-100.00,NNW,339,2.0,5.0,75,0.00,,,0.01,35.000000,,2013-01-18 00:43:00,
2013-01-17 17:53:00,28.0,21.0,-100.00,NNW,339,2.0,5.0,75,0.00,,,0.01,35.000000,,2013-01-18 00:53:00,
2013-01-17 18:02:00,28.0,21.0,-100.00,NNW,339,2.0,5.0,75,0.00,,,0.01,35.000000,,2013-01-18 01:02:00,
2013-01-17 18:12:00,28.0,21.0,-100.00,NNW,339,2.0,5.0,75,0.00,,,0.01,35.000000,,2013-01-18 01:12:00,
2013-01-17 18:33:00,24.0,22.0,-100.00,NNW,342,3.0,4.0,91,0.00,,,-99.99,1.000000,,2013-01-18 01:33:00,
2013-01-17 18:43:00,24.0,22.0,-100.00,NNW,342,3.0,4.0,91,0.00,,,-99.99,1.000000,,2013-01-18 01:43:00,
2013-01-17 18:53:00,24.0,22.0,-100.00,NNW,342,3.0,4.0,91,0.00,,,-99.99,1.000000,,2013-01-18 01:53:00,
2013-01-17 19:02:00,24.0,22.0,-100.00,NNW,342,3.0,4.0,91,0.00,,,-99.99,1.000000,,2013-01-18 02:02:00,
2013-01-17 19:12:00,24.0,22.0,-100.00,NNW,342,3.0,4.0,91,0.00,,,-99.99,1.000000,,2013-01-18 02:12:00,
2013-01-17 19:43:00,22.0,20.0,-100.00,North,359,3.0,4.0,91,0.00,,,0.01,0.000000,,2013-01-18 02:43:00,
2013-01-17 19:53:00,22.0,20.0,-100.00,North,359,3.0,4.0,91,0.00,,,0.01,0.000000,,2013-01-18 02:53:00,
2013-01-17 20:02:00,22.0,20.0,-100.00,North,359,3.0,4.0,91,0.00,,,0.01,0.000000,,2013-01-18 03:02:00,
2013-01-17 20:12:00,22.0,20.0,-100.00,North,359,3.0,4.0,91,0.00,,,0.01,0.000000,,2013-01-18 03:12:00,
2013-01-17 20:33:00,19.0,17.0,-100.00,NNE,18,2.0,5.0,92,0.00,,,-99.99,0.000000,,2013-01-18 03:33:00,
2013-01-17 20:43:00,19.0,17.0,-100.00,NNE,18,2.0,5.0,92,0.00,,,-99.99,0.000000,,2013-01-18 03:43:00,
2013-01-17 20:52:00,19.0,17.0,-100.00,NNE,18,2.0,5.0,92,0.00,,,-99.99,0.000000,,2013-01-18 03:52:00,
2013-01-17 21:02:00,19.0,17.0,-100.00,NNE,18,2.0,5.0,92,0.00,,,-99.99,0.000000,,2013-01-18 04:02:00,
2013-01-17 21:12:00,19.0,17.0,-100.00,NNE,18,2.0,5.0,92,0.00,,,-99.99,0.000000,,2013-01-18 04:12:00,
2013-01-17 21:33:00,16.0,14.0,-100.00,NNW,331,3.0,5.0,93,0.00,,,0.01,0.000000,,2013-01-18 04:33:00,
2013-01-17 21:42:00,16.0,14.0,-100.00,NNW,331,3.0,5.0,93,0.00,,,0.01,0.000000,,2013-01-18 04:42:00,
2013-01-17 21:53:00,16.0,14.0,-100.00,NNW,331,3.0,5.0,93,0.00,,,0.01,0.000000,,2013-01-18 04:53:00,
2013-01-17 22:03:00,16.0,14.0,-100.00,NNW,331,3.0,5.0,93,0.00,,,0.01,0.000000,,2013-01-18 05:03:00,
2013-01-17 22:12:00,16.0,14.0,-100.00,NNW,331,3.0,5.0,93,0.00,,,0.01,0.000000,,2013-01-18 05:12:00,
2013-01-17 22:33:00,14.0,12.0,-100.00,NNW,342,3.0,5.0,91,0.00,,,0.01,0.000000,,2013-01-18 05:33:00,
2013-01-17 23:33:00,13.0,11.0,-100.00,East,79,1.0,5.0,91,0.00,,,0.01,0.000000,,2013-01-18 06:33:00,